createdAt,value
2018-07-27T00:01:52.346Z,99.90
2018-07-27T00:04:20.514Z,99.90
2018-07-27T00:06:48.670Z,99.90
2018-07-27T00:09:16.827Z,99.90
2018-07-27T00:11:44.974Z,99.90
2018-07-27T00:14:13.149Z,99.90
2018-07-27T00:16:41.315Z,99.90
2018-07-27T00:19:09.473Z,99.90
2018-07-27T00:21:37.606Z,99.90
2018-07-27T00:24:05.758Z,99.90
2018-07-27T00:26:33.918Z,99.90
2018-07-27T00:29:02.060Z,99.90
2018-07-27T00:31:30.208Z,99.90
2018-07-27T00:33:58.408Z,99.90
2018-07-27T00:36:26.525Z,99.90
2018-07-27T00:38:54.701Z,99.90
2018-07-27T00:41:22.853Z,99.90
2018-07-27T00:43:51.025Z,99.90
2018-07-27T00:46:19.182Z,99.90
2018-07-27T00:48:47.358Z,99.90
2018-07-27T00:51:15.519Z,99.90
2018-07-27T00:53:43.673Z,99.90
2018-07-27T00:56:11.828Z,99.90
2018-07-27T00:58:39.990Z,99.90
2018-07-27T01:01:08.157Z,99.90
2018-07-27T01:03:36.301Z,99.90
2018-07-27T01:06:04.477Z,99.90
2018-07-27T01:08:32.641Z,99.90
2018-07-27T01:11:00.814Z,99.90
2018-07-27T01:13:28.964Z,99.90
2018-07-27T01:15:57.108Z,99.90
2018-07-27T01:18:25.492Z,99.90
2018-07-27T01:20:53.649Z,99.90
2018-07-27T01:23:21.797Z,99.90
2018-07-27T01:25:49.983Z,99.90
2018-07-27T01:28:18.141Z,99.90
2018-07-27T01:30:46.337Z,99.90
2018-07-27T01:33:14.534Z,99.90
2018-07-27T01:35:42.709Z,99.90
2018-07-27T01:38:10.889Z,99.90
2018-07-27T01:40:39.086Z,99.90
2018-07-27T01:43:07.262Z,99.90
2018-07-27T01:45:35.416Z,99.90
2018-07-27T01:48:03.582Z,99.90
2018-07-27T01:50:31.768Z,99.90
2018-07-27T01:52:59.997Z,99.90
2018-07-27T01:55:28.159Z,99.90
2018-07-27T01:57:56.309Z,99.90
2018-07-27T02:00:24.511Z,99.90
2018-07-27T02:02:52.666Z,99.90
2018-07-27T02:05:20.801Z,99.90
2018-07-27T02:07:48.958Z,99.90
2018-07-27T02:10:17.106Z,99.90
2018-07-27T02:12:45.278Z,99.90
2018-07-27T02:15:13.434Z,99.90
2018-07-27T02:17:41.569Z,99.90
2018-07-27T02:20:09.742Z,99.90
2018-07-27T02:22:37.893Z,99.90
2018-07-27T02:25:06.252Z,99.90
2018-07-27T02:27:34.394Z,99.90
2018-07-27T02:30:02.534Z,99.90
2018-07-27T02:32:30.689Z,99.90
2018-07-27T02:34:58.839Z,99.90
2018-07-27T02:37:26.985Z,99.90
2018-07-27T02:39:55.141Z,99.90
2018-07-27T02:42:23.282Z,99.90
2018-07-27T02:44:51.421Z,99.90
2018-07-27T02:47:19.558Z,99.90
2018-07-27T02:49:47.701Z,99.90
2018-07-27T02:52:15.866Z,99.90
2018-07-27T02:54:44.007Z,99.90
2018-07-27T02:57:12.150Z,99.90
2018-07-27T02:59:40.286Z,99.90
2018-07-27T03:02:08.469Z,99.90
2018-07-27T03:04:36.642Z,99.90
2018-07-27T03:07:04.790Z,99.90
2018-07-27T03:09:32.982Z,99.90
2018-07-27T03:12:01.153Z,99.90
2018-07-27T03:14:29.301Z,99.90
2018-07-27T03:16:57.495Z,99.90
2018-07-27T03:19:25.931Z,99.90
2018-07-27T03:21:54.081Z,99.90
2018-07-27T03:24:22.490Z,99.90
2018-07-27T03:26:50.661Z,99.90
2018-07-27T03:31:46.762Z,99.90
2018-07-27T03:34:14.916Z,99.90
2018-07-27T03:36:43.069Z,99.90
2018-07-27T03:39:11.937Z,99.90
2018-07-27T03:41:40.081Z,99.90
2018-07-27T03:44:08.249Z,99.90
2018-07-27T03:46:36.425Z,99.90
2018-07-27T03:49:04.573Z,99.90
2018-07-27T03:51:32.701Z,99.90
2018-07-27T03:54:00.863Z,99.90
2018-07-27T03:56:28.997Z,99.90
2018-07-27T03:58:57.134Z,99.90
2018-07-27T04:01:25.301Z,99.90
2018-07-27T04:03:53.526Z,99.90
2018-07-27T04:06:21.673Z,99.90
2018-07-27T04:08:49.822Z,99.90
2018-07-27T04:11:17.974Z,99.90
2018-07-27T04:13:46.137Z,99.90
2018-07-27T04:16:14.313Z,99.90
2018-07-27T04:18:42.493Z,99.90
2018-07-27T04:21:10.661Z,99.90
2018-07-27T04:23:38.837Z,99.90
2018-07-27T04:26:07.049Z,99.90
2018-07-27T04:28:35.201Z,99.90
2018-07-27T04:31:03.361Z,99.90
2018-07-27T04:33:31.514Z,99.90
2018-07-27T04:35:59.684Z,99.90
2018-07-27T04:38:27.822Z,99.90
2018-07-27T04:40:55.995Z,99.90
2018-07-27T04:43:24.154Z,99.90
2018-07-27T04:45:52.313Z,99.90
2018-07-27T04:48:20.466Z,99.90
2018-07-27T04:50:48.626Z,99.90
2018-07-27T04:53:16.766Z,99.90
2018-07-27T04:55:44.926Z,99.90
2018-07-27T04:58:13.081Z,99.90
2018-07-27T05:00:41.226Z,99.90
2018-07-27T05:03:09.380Z,99.90
2018-07-27T05:05:37.529Z,99.90
2018-07-27T05:10:38.910Z,99.90
2018-07-27T05:13:07.533Z,99.90
2018-07-27T05:15:35.685Z,99.90
2018-07-27T05:18:03.842Z,99.90
2018-07-27T05:20:32.191Z,99.90
2018-07-27T05:23:00.353Z,99.90
2018-07-27T05:25:28.497Z,99.90
2018-07-27T05:27:56.667Z,99.90
2018-07-27T05:30:24.811Z,99.90
2018-07-27T05:32:52.965Z,99.90
2018-07-27T05:35:21.117Z,99.90
2018-07-27T05:37:49.297Z,99.90
2018-07-27T05:40:17.449Z,99.90
2018-07-27T05:42:45.598Z,99.90
2018-07-27T05:45:13.745Z,99.90
2018-07-27T05:47:41.905Z,99.90
2018-07-27T05:50:10.066Z,99.90
2018-07-27T05:52:38.290Z,99.90
2018-07-27T05:55:07.445Z,99.90
2018-07-27T05:57:35.609Z,99.90
2018-07-27T06:00:04.842Z,99.90
2018-07-27T06:02:33.037Z,99.90
2018-07-27T06:05:01.187Z,99.90
2018-07-27T06:07:29.368Z,99.90
2018-07-27T06:09:57.510Z,99.90
2018-07-27T06:12:25.688Z,99.90
2018-07-27T06:14:54.174Z,99.90
2018-07-27T06:17:22.312Z,99.90
2018-07-27T06:19:50.457Z,99.90
2018-07-27T06:22:18.609Z,99.90
2018-07-27T06:27:19.967Z,99.90
2018-07-27T06:29:48.555Z,99.90
2018-07-27T06:32:17.338Z,99.90
2018-07-27T06:34:45.918Z,99.90
2018-07-27T06:37:14.501Z,99.90
2018-07-27T06:39:44.133Z,99.90
2018-07-27T06:42:12.375Z,99.90
2018-07-27T06:44:40.530Z,99.90
2018-07-27T06:47:08.671Z,99.90
2018-07-27T06:49:36.811Z,99.90
2018-07-27T06:52:04.949Z,99.90
2018-07-27T06:54:33.090Z,99.90
2018-07-27T06:57:01.238Z,99.90
2018-07-27T06:59:29.381Z,99.90
2018-07-27T07:01:57.545Z,99.90
2018-07-27T07:04:25.681Z,99.90
2018-07-27T07:06:53.830Z,99.90
2018-07-27T07:09:21.965Z,99.90
2018-07-27T07:11:50.101Z,99.90
2018-07-27T07:14:18.241Z,99.90
2018-07-27T07:16:46.426Z,99.90
2018-07-27T07:19:14.560Z,99.90
2018-07-27T07:21:42.701Z,99.90
2018-07-27T07:24:10.869Z,99.90
2018-07-27T07:26:38.997Z,99.90
2018-07-27T07:29:07.151Z,99.90
2018-07-27T07:31:35.365Z,99.90
2018-07-27T07:34:03.505Z,99.90
2018-07-27T07:36:31.697Z,99.90
2018-07-27T07:38:59.887Z,99.90
2018-07-27T07:41:28.057Z,99.90
2018-07-27T07:43:56.214Z,99.90
2018-07-27T07:46:24.374Z,99.90
2018-07-27T07:48:52.507Z,99.90
2018-07-27T07:51:20.642Z,99.90
2018-07-27T07:53:48.796Z,99.90
2018-07-27T07:56:16.938Z,99.90
2018-07-27T07:58:45.107Z,99.90
2018-07-27T08:01:13.285Z,99.90
2018-07-27T08:03:41.455Z,99.90
2018-07-27T08:06:09.602Z,99.90
2018-07-27T08:08:37.774Z,99.90
2018-07-27T08:11:05.960Z,99.90
2018-07-27T08:13:34.103Z,99.90
2018-07-27T08:16:02.242Z,99.90
2018-07-27T08:18:30.408Z,99.90
2018-07-27T08:20:58.581Z,99.90
2018-07-27T08:23:26.741Z,99.90
2018-07-27T08:27:00.103Z,99.90
2018-07-27T08:29:29.528Z,99.90
2018-07-27T08:31:58.119Z,99.90
2018-07-27T08:34:26.282Z,99.90
2018-07-27T08:36:54.442Z,99.90
2018-07-27T08:39:23.959Z,99.90
2018-07-27T08:41:52.207Z,99.90
2018-07-27T08:44:22.542Z,99.90
2018-07-27T08:46:50.694Z,99.90
2018-07-27T08:49:18.901Z,99.90
2018-07-27T08:51:47.090Z,99.90
2018-07-27T08:54:15.254Z,99.90
2018-07-27T08:56:43.410Z,99.90
2018-07-27T08:59:11.563Z,99.90
2018-07-27T09:01:39.721Z,99.90
2018-07-27T09:04:07.895Z,99.90
2018-07-27T09:06:36.056Z,99.90
2018-07-27T09:09:08.237Z,99.90
2018-07-27T09:11:36.431Z,99.90
2018-07-27T09:14:04.642Z,99.90
2018-07-27T09:16:32.841Z,99.90
2018-07-27T09:19:00.989Z,99.90
2018-07-27T09:21:29.161Z,99.90
2018-07-27T09:23:57.323Z,99.90
2018-07-27T09:26:25.485Z,99.90
2018-07-27T09:28:53.642Z,99.90
2018-07-27T09:31:21.850Z,99.90
2018-07-27T09:33:50.024Z,99.90
2018-07-27T09:36:18.169Z,99.90
2018-07-27T09:38:46.377Z,99.90
2018-07-27T09:41:14.530Z,99.90
2018-07-27T09:43:42.677Z,99.90
2018-07-27T09:46:10.830Z,99.90
2018-07-27T09:48:38.997Z,99.90
2018-07-27T09:51:07.147Z,99.90
2018-07-27T09:53:35.311Z,99.90
2018-07-27T09:56:03.450Z,99.90
2018-07-27T09:58:31.629Z,99.90
2018-07-27T10:01:05.301Z,99.90
2018-07-27T10:03:33.445Z,99.90
2018-07-27T10:06:01.598Z,99.60
2018-07-27T10:08:29.741Z,99.80
2018-07-27T10:10:57.918Z,99.90
2018-07-27T10:13:26.066Z,99.10
2018-07-27T10:15:54.241Z,99.50
2018-07-27T10:18:22.426Z,99.90
2018-07-27T10:20:50.563Z,99.30
2018-07-27T10:23:18.702Z,99.00
2018-07-27T10:25:46.853Z,99.10
2018-07-27T10:28:15.156Z,99.30
2018-07-27T10:30:43.331Z,98.50
2018-07-27T10:33:11.482Z,97.10
2018-07-27T10:35:39.647Z,97.90
2018-07-27T10:38:07.805Z,98.10
2018-07-27T10:40:35.958Z,98.20
2018-07-27T10:43:04.141Z,98.20
2018-07-27T10:45:32.305Z,97.10
2018-07-27T10:48:00.470Z,98.00
2018-07-27T10:50:28.626Z,97.70
2018-07-27T10:52:56.779Z,97.90
2018-07-27T10:55:24.956Z,98.30
2018-07-27T10:57:53.119Z,97.50
2018-07-27T11:00:21.305Z,97.80
2018-07-27T11:02:49.462Z,98.00
2018-07-27T11:05:17.642Z,98.50
2018-07-27T11:07:45.799Z,98.60
2018-07-27T11:10:13.949Z,98.50
2018-07-27T11:12:42.094Z,97.80
2018-07-27T11:15:10.803Z,98.30
2018-07-27T11:17:39.506Z,97.90
2018-07-27T11:20:08.465Z,98.50
2018-07-27T11:22:36.625Z,98.50
2018-07-27T11:25:05.178Z,97.90
2018-07-27T11:27:33.353Z,97.30
2018-07-27T11:30:01.547Z,98.90
2018-07-27T11:32:29.714Z,97.60
2018-07-27T11:34:57.871Z,97.50
2018-07-27T11:37:26.115Z,97.10
2018-07-27T11:39:54.465Z,96.90
2018-07-27T11:42:22.646Z,98.60
2018-07-27T11:44:50.775Z,97.00
2018-07-27T11:47:18.930Z,96.70
2018-07-27T11:49:47.082Z,97.60
2018-07-27T11:52:15.278Z,96.30
2018-07-27T11:54:43.425Z,96.00
2018-07-27T11:57:11.584Z,96.10
2018-07-27T11:59:39.734Z,95.90
2018-07-27T12:02:07.894Z,95.50
2018-07-27T12:04:36.073Z,95.20
2018-07-27T12:07:04.335Z,95.90
2018-07-27T12:09:32.406Z,95.20
2018-07-27T12:12:00.573Z,95.40
2018-07-27T12:14:28.919Z,95.60
2018-07-27T12:16:56.870Z,95.10
2018-07-27T12:19:25.013Z,95.90
2018-07-27T12:21:53.187Z,95.70
2018-07-27T12:24:21.335Z,95.80
2018-07-27T12:26:49.507Z,95.90
2018-07-27T12:29:17.657Z,97.60
2018-07-27T12:31:45.794Z,97.40
2018-07-27T12:34:14.030Z,97.80
2018-07-27T12:36:42.172Z,97.90
2018-07-27T12:39:11.466Z,97.40
2018-07-27T12:44:08.854Z,95.40
2018-07-27T12:46:37.529Z,95.20
2018-07-27T12:49:05.952Z,95.10
2018-07-27T12:51:34.165Z,96.30
2018-07-27T12:54:02.335Z,95.80
2018-07-27T12:56:30.609Z,97.00
2018-07-27T12:58:58.824Z,96.30
2018-07-27T13:01:26.934Z,97.20
2018-07-27T13:03:55.114Z,94.50
2018-07-27T13:06:23.275Z,95.60
2018-07-27T13:08:51.438Z,96.20
2018-07-27T13:11:19.582Z,95.40
2018-07-27T13:13:47.734Z,94.20
2018-07-27T13:16:15.897Z,94.40
2018-07-27T13:18:44.094Z,94.10
2018-07-27T13:21:12.257Z,95.40
2018-07-27T13:23:50.620Z,92.60
2018-07-27T13:26:25.726Z,94.30
2018-07-27T13:28:46.921Z,92.40
2018-07-27T13:31:15.086Z,91.60
2018-07-27T13:33:55.492Z,93.00
2018-07-27T13:36:23.637Z,93.40
2018-07-27T13:38:51.798Z,93.90
2018-07-27T13:41:19.962Z,93.20
2018-07-27T13:43:48.140Z,93.10
2018-07-27T13:46:16.285Z,92.90
2018-07-27T13:48:44.442Z,92.40
2018-07-27T13:51:12.586Z,92.50
2018-07-27T13:53:40.753Z,93.90
2018-07-27T13:56:08.916Z,92.90
2018-07-27T13:58:37.095Z,92.20
2018-07-27T14:01:05.257Z,93.40
2018-07-27T14:03:33.405Z,92.90
2018-07-27T14:06:01.537Z,92.60
2018-07-27T14:08:29.705Z,92.10
2018-07-27T14:10:57.900Z,91.90
2018-07-27T14:13:26.107Z,92.40
2018-07-27T14:15:54.262Z,92.80
2018-07-27T14:18:22.423Z,93.10
2018-07-27T14:20:50.578Z,93.00
2018-07-27T14:23:18.734Z,92.40
2018-07-27T14:25:46.886Z,91.60
2018-07-27T14:28:15.050Z,91.80
2018-07-27T14:30:43.199Z,90.70
2018-07-27T14:33:11.374Z,92.00
2018-07-27T14:35:39.547Z,92.90
2018-07-27T14:38:07.706Z,92.10
2018-07-27T14:40:35.903Z,93.30
2018-07-27T14:43:04.122Z,91.60
2018-07-27T14:45:32.270Z,92.60
2018-07-27T14:48:00.436Z,91.20
2018-07-27T14:50:28.600Z,91.10
2018-07-27T14:52:56.790Z,90.60
2018-07-27T14:55:24.995Z,89.60
2018-07-27T14:57:53.243Z,92.50
2018-07-27T15:00:21.438Z,93.10
2018-07-27T15:02:49.598Z,93.40
2018-07-27T15:05:17.764Z,93.90
2018-07-27T15:07:45.926Z,93.90
2018-07-27T15:10:14.082Z,94.60
2018-07-27T15:12:42.234Z,94.60
2018-07-27T15:15:10.414Z,94.70
2018-07-27T15:17:38.550Z,94.10
2018-07-27T15:20:06.714Z,94.70
2018-07-27T15:22:34.850Z,95.10
2018-07-27T15:25:03.026Z,94.60
2018-07-27T15:27:32.017Z,95.20
2018-07-27T15:30:00.194Z,95.30
2018-07-27T15:32:28.331Z,95.10
2018-07-27T15:34:56.596Z,94.90
2018-07-27T15:37:24.726Z,95.30
2018-07-27T15:39:52.898Z,95.30
2018-07-27T15:42:21.063Z,96.00
2018-07-27T15:44:49.238Z,96.60
2018-07-27T15:47:17.381Z,96.40
2018-07-27T15:49:45.558Z,96.30
2018-07-27T15:52:13.693Z,96.20
2018-07-27T15:54:41.886Z,96.30
2018-07-27T15:57:10.082Z,96.20
2018-07-27T15:59:38.275Z,96.00
2018-07-27T16:02:06.530Z,95.80
2018-07-27T16:04:34.672Z,96.40
2018-07-27T16:07:02.848Z,96.30
2018-07-27T16:09:30.990Z,95.90
2018-07-27T16:11:59.259Z,96.40
2018-07-27T16:14:27.398Z,96.90
2018-07-27T16:16:55.882Z,97.30
2018-07-27T16:19:24.964Z,96.70
2018-07-27T16:21:53.162Z,96.60
2018-07-27T16:24:21.268Z,97.10
2018-07-27T16:26:49.413Z,96.30
2018-07-27T16:29:17.595Z,96.60
2018-07-27T16:31:45.799Z,96.20
2018-07-27T16:34:13.945Z,96.30
2018-07-27T16:36:42.106Z,96.40
2018-07-27T16:39:10.974Z,96.90
2018-07-27T16:41:39.134Z,97.10
2018-07-27T16:44:07.269Z,97.40
2018-07-27T16:46:35.452Z,96.30
2018-07-27T16:49:03.547Z,96.80
2018-07-27T16:51:32.969Z,96.60
2018-07-27T16:54:01.386Z,96.40
2018-07-27T16:56:29.550Z,95.20
2018-07-27T16:58:57.733Z,95.40
2018-07-27T17:01:25.865Z,95.00
2018-07-27T17:03:54.045Z,95.00
2018-07-27T17:06:22.256Z,95.10
2018-07-27T17:08:50.341Z,94.90
2018-07-27T17:11:18.489Z,95.10
2018-07-27T17:13:46.630Z,94.30
2018-07-27T17:16:14.813Z,95.30
2018-07-27T17:18:42.937Z,94.60
2018-07-27T17:21:11.086Z,94.30
2018-07-27T17:23:39.270Z,95.10
2018-07-27T17:26:07.414Z,94.40
2018-07-27T17:28:35.613Z,94.50
2018-07-27T17:31:03.849Z,94.90
2018-07-27T17:33:32.028Z,96.30
2018-07-27T17:36:00.159Z,96.30
2018-07-27T17:38:28.302Z,97.30
2018-07-27T17:40:56.457Z,97.80
2018-07-27T17:43:24.626Z,98.10
2018-07-27T17:45:52.782Z,98.50
2018-07-27T17:48:20.986Z,99.50
2018-07-27T17:50:49.126Z,99.20
2018-07-27T17:53:17.277Z,99.40
2018-07-27T17:55:45.430Z,99.40
2018-07-27T17:58:13.577Z,99.10
2018-07-27T18:00:41.739Z,99.40
2018-07-27T18:03:09.897Z,99.10
2018-07-27T18:05:38.066Z,99.40
2018-07-27T18:08:06.308Z,99.50
2018-07-27T18:10:34.398Z,99.20
2018-07-27T18:13:02.632Z,99.40
2018-07-27T18:15:30.733Z,99.50
2018-07-27T18:17:58.906Z,99.60
2018-07-27T18:20:27.053Z,99.80
2018-07-27T18:22:55.246Z,99.90
2018-07-27T18:25:23.471Z,99.90
2018-07-27T18:27:51.593Z,99.90
2018-07-27T18:30:19.785Z,99.90
2018-07-27T18:32:47.938Z,99.90
2018-07-27T18:35:16.095Z,99.90
2018-07-27T18:37:44.257Z,99.90
2018-07-27T18:40:12.414Z,99.90
2018-07-27T18:42:40.565Z,99.90
2018-07-27T18:45:09.602Z,99.90
2018-07-27T18:47:37.830Z,99.90
2018-07-27T18:50:06.574Z,99.90
2018-07-27T18:52:34.745Z,99.90
2018-07-27T18:55:02.962Z,99.90
2018-07-27T18:57:31.063Z,99.90
2018-07-27T18:59:59.253Z,99.90
2018-07-27T19:02:28.606Z,99.90
2018-07-27T19:05:00.468Z,99.90
2018-07-27T19:07:30.324Z,99.90
2018-07-27T19:10:00.026Z,99.90
2018-07-27T19:12:28.936Z,99.90
2018-07-27T19:14:58.456Z,99.90
2018-07-27T19:17:29.189Z,99.90
2018-07-27T19:19:57.373Z,99.90
2018-07-27T19:22:26.210Z,99.90
2018-07-27T19:24:54.857Z,99.90
2018-07-27T19:27:23.992Z,99.90
2018-07-27T19:29:56.616Z,99.90
2018-07-27T19:32:26.024Z,99.90
2018-07-27T19:34:55.152Z,99.90
2018-07-27T19:37:24.413Z,99.90
2018-07-27T19:40:00.037Z,99.90
2018-07-27T19:42:28.533Z,99.90
2018-07-27T19:44:57.783Z,99.90
2018-07-27T19:47:29.816Z,99.90
2018-07-27T19:49:58.476Z,99.90
2018-07-27T19:52:30.935Z,99.90
2018-07-27T19:55:01.495Z,99.90
2018-07-27T19:57:30.735Z,99.90
2018-07-27T19:59:58.907Z,99.90
2018-07-27T20:02:27.452Z,99.90
2018-07-27T20:04:56.704Z,99.90
2018-07-27T20:07:31.360Z,99.90
2018-07-27T20:10:01.034Z,99.90
2018-07-27T20:12:32.146Z,99.90
2018-07-27T20:17:28.950Z,99.90
2018-07-27T20:19:57.561Z,99.90
2018-07-27T20:22:26.089Z,99.90
2018-07-27T20:24:55.139Z,99.90
2018-07-27T20:27:24.644Z,99.90
2018-07-27T20:29:53.866Z,99.90
2018-07-27T20:32:22.885Z,99.90
2018-07-27T20:34:51.577Z,99.90
2018-07-27T20:37:20.144Z,99.90
2018-07-27T20:39:49.509Z,99.90
2018-07-27T20:42:18.543Z,99.90
2018-07-27T20:44:46.910Z,99.90
2018-07-27T20:47:16.007Z,99.90
2018-07-27T20:49:47.080Z,99.90
2018-07-27T20:52:15.846Z,99.90
2018-07-27T20:54:45.045Z,99.90
2018-07-27T20:57:17.279Z,99.90
2018-07-27T20:59:45.613Z,99.90
2018-07-27T21:02:14.170Z,99.90
2018-07-27T21:04:42.997Z,99.90
2018-07-27T21:07:11.163Z,99.90
2018-07-27T21:09:39.326Z,99.90
2018-07-27T21:12:07.498Z,99.90
2018-07-27T21:14:35.650Z,99.90
2018-07-27T21:17:03.796Z,99.90
2018-07-27T21:22:00.006Z,99.90
2018-07-27T21:24:28.039Z,99.90
2018-07-27T21:26:56.181Z,99.90
2018-07-27T21:29:24.345Z,99.90
2018-07-27T21:31:52.485Z,99.90
2018-07-27T21:34:22.101Z,99.90
2018-07-27T21:36:50.246Z,99.90
2018-07-27T21:39:18.404Z,99.90
2018-07-27T21:41:46.572Z,99.90
2018-07-27T21:44:15.192Z,99.90
2018-07-27T21:46:48.305Z,99.90
2018-07-27T21:49:16.454Z,99.90
2018-07-27T21:51:46.496Z,99.90
2018-07-27T21:56:45.823Z,99.90
2018-07-27T21:59:18.052Z,99.90
2018-07-27T22:01:47.180Z,99.90
2018-07-27T22:04:15.932Z,99.90
2018-07-27T22:06:44.713Z,99.90
2018-07-27T22:09:13.782Z,99.90
2018-07-27T22:11:43.081Z,99.90
2018-07-27T22:14:12.532Z,99.90
2018-07-27T22:16:41.225Z,99.90
2018-07-27T22:19:11.250Z,99.90
2018-07-27T22:21:39.841Z,99.90
2018-07-27T22:24:09.659Z,99.90
2018-07-27T22:26:40.406Z,99.90
2018-07-27T22:29:10.887Z,99.90
2018-07-27T22:31:39.549Z,99.90
2018-07-27T22:34:08.267Z,99.90
2018-07-27T22:36:36.735Z,99.90
2018-07-27T22:39:07.972Z,99.90
2018-07-27T22:41:36.975Z,99.90
2018-07-27T22:44:07.129Z,99.90
2018-07-27T22:46:35.826Z,99.90
2018-07-27T22:49:04.721Z,99.90
2018-07-27T22:51:33.424Z,99.90
2018-07-27T22:54:03.048Z,99.90
2018-07-27T22:56:32.327Z,99.90
2018-07-27T22:59:01.058Z,99.90
2018-07-27T23:01:30.362Z,99.90
2018-07-27T23:03:58.590Z,99.90
2018-07-27T23:06:26.769Z,99.90
2018-07-27T23:11:22.880Z,99.90
2018-07-27T23:13:51.029Z,99.90
2018-07-27T23:16:19.221Z,99.90
2018-07-27T23:18:47.373Z,99.90
2018-07-27T23:21:15.523Z,99.90
2018-07-27T23:23:43.676Z,99.90
2018-07-27T23:26:11.817Z,99.90
2018-07-27T23:28:40.014Z,99.90
2018-07-27T23:31:08.157Z,99.90
2018-07-27T23:33:36.323Z,99.90
2018-07-27T23:36:04.510Z,99.90
2018-07-27T23:38:32.677Z,99.90
2018-07-27T23:41:00.834Z,99.90
2018-07-27T23:43:29.025Z,99.90
2018-07-27T23:45:57.205Z,99.90
2018-07-27T23:48:25.371Z,99.90
2018-07-27T23:50:53.518Z,99.90
2018-07-27T23:53:21.661Z,99.90
2018-07-27T23:55:49.901Z,99.90
2018-07-27T23:58:18.032Z,99.90
